createdAt,value
2023-04-14T00:01:59.610Z,4.13
2023-04-14T00:04:26.731Z,3.55
2023-04-14T00:06:53.330Z,3.90
2023-04-14T00:09:19.855Z,6.05
2023-04-14T00:11:46.517Z,5.82
2023-04-14T00:14:13.023Z,5.28
2023-04-14T00:16:39.916Z,4.28
2023-04-14T00:19:06.346Z,5.40
2023-04-14T00:21:32.866Z,5.90
2023-04-14T00:23:59.452Z,6.65
2023-04-14T00:26:26.030Z,6.32
2023-04-14T00:28:52.577Z,4.22
2023-04-14T00:31:19.092Z,5.63
2023-04-14T00:33:45.645Z,6.97
2023-04-14T00:36:12.138Z,4.45
2023-04-14T00:38:38.704Z,6.35
2023-04-14T00:41:05.290Z,7.00
2023-04-14T00:43:31.771Z,4.80
2023-04-14T00:45:58.555Z,4.57
2023-04-14T00:48:25.228Z,6.60
2023-04-14T00:50:51.769Z,5.07
2023-04-14T00:53:18.415Z,7.55
2023-04-14T00:55:44.886Z,7.33
2023-04-14T00:58:12.273Z,6.60
2023-04-14T01:00:39.009Z,6.35
2023-04-14T01:03:06.465Z,5.32
2023-04-14T01:05:34.088Z,5.40
2023-04-14T01:08:02.129Z,5.80
2023-04-14T01:10:33.281Z,7.10
2023-04-14T01:13:33.549Z,8.93
2023-04-14T01:16:05.918Z,8.45
2023-04-14T01:18:53.276Z,8.00
2023-04-14T01:21:30.019Z,8.10
2023-04-14T01:24:12.070Z,5.47
2023-04-14T01:26:39.327Z,5.65
2023-04-14T01:29:31.821Z,5.97
2023-04-14T01:32:05.966Z,5.10
2023-04-14T01:34:48.352Z,5.13
2023-04-14T01:37:16.860Z,4.07
2023-04-14T01:39:48.318Z,5.45
2023-04-14T01:42:22.042Z,5.63
2023-04-14T01:44:58.908Z,8.13
2023-04-14T01:47:26.932Z,4.63
2023-04-14T01:49:55.704Z,5.25
2023-04-14T01:52:22.900Z,8.23
2023-04-14T01:54:52.205Z,5.25
2023-04-14T01:57:22.767Z,6.57
2023-04-14T01:59:53.591Z,6.23
2023-04-14T02:02:22.568Z,5.90
2023-04-14T02:04:50.197Z,6.10
2023-04-14T02:07:19.585Z,5.85
2023-04-14T02:09:48.071Z,4.68
2023-04-14T02:12:14.662Z,5.63
2023-04-14T02:14:43.267Z,4.80
2023-04-14T02:17:11.538Z,5.72
2023-04-14T02:19:38.929Z,4.15
2023-04-14T02:22:05.627Z,5.40
2023-04-14T02:24:32.153Z,6.27
2023-04-14T02:27:14.942Z,6.20
2023-04-14T02:29:45.209Z,5.68
2023-04-14T02:32:21.479Z,6.20
2023-04-14T02:34:54.105Z,5.57
2023-04-14T02:37:24.130Z,5.80
2023-04-14T02:39:56.746Z,6.32
2023-04-14T02:42:27.358Z,7.10
2023-04-14T02:45:02.598Z,4.90
2023-04-14T02:47:35.905Z,5.93
2023-04-14T02:50:04.951Z,9.07
2023-04-14T02:52:34.111Z,5.50
2023-04-14T02:55:02.804Z,10.13
2023-04-14T02:57:30.260Z,8.35
2023-04-14T02:59:58.687Z,8.15
2023-04-14T03:02:26.139Z,10.33
2023-04-14T03:05:02.186Z,10.43
2023-04-14T03:07:37.971Z,7.15
2023-04-14T03:10:05.766Z,9.05
2023-04-14T03:12:34.950Z,8.02
2023-04-14T03:15:02.955Z,10.10
2023-04-14T03:17:31.554Z,13.85
2023-04-14T03:19:58.657Z,9.82
2023-04-14T03:22:28.107Z,6.90
2023-04-14T03:24:58.931Z,8.93
2023-04-14T03:27:30.025Z,7.43
2023-04-14T03:30:01.237Z,7.47
2023-04-14T03:32:35.732Z,7.35
2023-04-14T03:35:03.193Z,8.13
2023-04-14T03:37:32.589Z,8.48
2023-04-14T03:40:02.169Z,7.60
2023-04-14T03:42:34.099Z,9.43
2023-04-14T03:45:02.289Z,8.40
2023-04-14T03:47:31.640Z,6.55
2023-04-14T03:50:01.792Z,7.53
2023-04-14T03:52:34.051Z,5.77
2023-04-14T03:55:05.999Z,8.52
2023-04-14T03:57:36.178Z,7.50
2023-04-14T04:00:05.281Z,9.23
2023-04-14T04:02:41.564Z,7.13
2023-04-14T04:05:10.053Z,7.07
2023-04-14T04:07:38.397Z,7.30
2023-04-14T04:10:05.790Z,9.20
2023-04-14T04:12:33.417Z,8.38
2023-04-14T04:15:02.324Z,7.53
2023-04-14T04:17:32.546Z,8.27
2023-04-14T04:20:02.291Z,10.25
2023-04-14T04:22:33.539Z,8.32
2023-04-14T04:25:00.329Z,7.90
2023-04-14T04:27:31.512Z,4.78
2023-04-14T04:30:10.653Z,6.60
2023-04-14T04:32:38.981Z,9.15
2023-04-14T04:35:07.350Z,6.95
2023-04-14T04:37:34.722Z,8.23
2023-04-14T04:40:02.023Z,6.90
2023-04-14T04:42:29.702Z,9.40
2023-04-14T04:44:56.589Z,6.90
2023-04-14T04:47:23.433Z,9.30
2023-04-14T04:49:50.054Z,10.30
2023-04-14T04:52:16.577Z,8.40
2023-04-14T04:54:43.692Z,8.40
2023-04-14T04:57:11.685Z,6.53
2023-04-14T04:59:38.742Z,8.77
2023-04-14T05:02:05.272Z,8.90
2023-04-14T05:04:32.087Z,7.47
2023-04-14T05:06:58.604Z,11.37
2023-04-14T05:09:25.358Z,8.20
2023-04-14T05:11:51.862Z,10.32
2023-04-14T05:14:18.456Z,14.32
2023-04-14T05:16:44.957Z,13.63
2023-04-14T05:19:11.543Z,13.87
2023-04-14T05:21:38.114Z,13.18
2023-04-14T05:24:05.438Z,18.17
2023-04-14T05:26:51.984Z,12.50
2023-04-14T05:29:18.672Z,13.05
2023-04-14T05:31:45.311Z,11.40
2023-04-14T05:34:11.834Z,11.40
2023-04-14T05:36:38.371Z,10.55
2023-04-14T05:39:04.983Z,14.80
2023-04-14T05:41:31.612Z,14.95
2023-04-14T05:43:58.106Z,12.63
2023-04-14T05:46:24.719Z,13.48
2023-04-14T05:48:51.494Z,10.65
2023-04-14T05:51:18.178Z,10.18
2023-04-14T05:53:44.664Z,11.27
2023-04-14T05:56:11.639Z,10.13
2023-04-14T05:58:38.224Z,11.57
2023-04-14T06:01:05.538Z,11.55
2023-04-14T06:03:32.207Z,11.98
2023-04-14T06:05:59.030Z,14.13
2023-04-14T06:08:25.543Z,13.20
2023-04-14T06:10:52.072Z,18.15
2023-04-14T06:13:22.740Z,10.20
2023-04-14T06:15:50.981Z,15.52
2023-04-14T06:18:17.716Z,16.77
2023-04-14T06:20:45.346Z,12.93
2023-04-14T06:23:11.855Z,18.27
2023-04-14T06:25:38.318Z,14.07
2023-04-14T06:28:04.838Z,18.50
2023-04-14T06:30:34.359Z,12.38
2023-04-14T06:33:04.350Z,13.20
2023-04-14T06:35:33.848Z,11.95
2023-04-14T06:38:03.714Z,12.65
2023-04-14T06:40:30.500Z,13.25
2023-04-14T06:42:56.993Z,13.43
2023-04-14T06:45:23.449Z,12.77
2023-04-14T06:47:50.008Z,14.55
2023-04-14T06:50:16.558Z,13.60
2023-04-14T06:52:43.077Z,16.40
2023-04-14T06:55:10.092Z,14.75
2023-04-14T06:57:36.557Z,11.67
2023-04-14T07:00:04.855Z,9.48
2023-04-14T07:02:31.494Z,13.27
2023-04-14T07:04:58.111Z,13.10
2023-04-14T07:07:24.687Z,11.70
2023-04-14T07:09:51.808Z,14.63
2023-04-14T07:12:18.644Z,13.13
2023-04-14T07:14:51.824Z,14.75
2023-04-14T07:17:19.393Z,16.23
2023-04-14T07:19:46.420Z,19.73
2023-04-14T07:22:12.972Z,15.43
2023-04-14T07:24:39.428Z,14.45
2023-04-14T07:27:07.290Z,17.45
2023-04-14T07:29:34.989Z,15.20
2023-04-14T07:32:01.660Z,13.32
2023-04-14T07:34:28.412Z,14.13
2023-04-14T07:36:55.004Z,13.88
2023-04-14T07:39:23.664Z,11.07
2023-04-14T07:41:50.485Z,14.75
2023-04-14T07:44:17.086Z,16.50
2023-04-14T07:46:43.836Z,10.90
2023-04-14T07:49:10.572Z,12.90
2023-04-14T07:51:37.174Z,10.93
2023-04-14T07:54:05.826Z,11.45
2023-04-14T07:56:32.639Z,10.68
2023-04-14T07:58:59.288Z,12.10
2023-04-14T08:01:27.453Z,12.57
2023-04-14T08:03:54.529Z,11.70
2023-04-14T08:06:21.382Z,9.85
2023-04-14T08:08:47.898Z,8.32
2023-04-14T08:11:14.496Z,11.40
2023-04-14T08:13:41.092Z,10.13
2023-04-14T08:16:07.848Z,10.43
2023-04-14T08:18:34.378Z,16.20
2023-04-14T08:21:01.037Z,8.85
2023-04-14T08:23:27.681Z,10.47
2023-04-14T08:25:54.255Z,10.23
2023-04-14T08:28:21.132Z,9.23
2023-04-14T08:30:49.316Z,10.40
2023-04-14T08:33:15.904Z,8.57
2023-04-14T08:35:43.784Z,10.20
2023-04-14T08:38:10.838Z,8.75
2023-04-14T08:40:39.878Z,10.13
2023-04-14T08:43:06.842Z,9.07
2023-04-14T08:45:33.975Z,13.00
2023-04-14T08:48:02.562Z,10.67
2023-04-14T08:50:36.881Z,9.27
2023-04-14T08:53:07.933Z,8.20
2023-04-14T08:55:36.800Z,7.43
2023-04-14T08:58:06.398Z,7.28
2023-04-14T09:00:33.159Z,12.90
2023-04-14T09:02:59.864Z,10.68
2023-04-14T09:05:27.044Z,8.77
2023-04-14T09:07:54.179Z,10.27
2023-04-14T09:10:22.057Z,12.07
2023-04-14T09:12:48.986Z,6.80
2023-04-14T09:15:16.919Z,8.55
2023-04-14T09:17:43.927Z,6.50
2023-04-14T09:20:36.567Z,7.35
2023-04-14T09:22:58.560Z,7.57
2023-04-14T09:25:25.313Z,6.40
2023-04-14T09:27:52.173Z,5.85
2023-04-14T09:30:18.717Z,8.13
2023-04-14T09:32:45.450Z,7.28
2023-04-14T09:35:16.168Z,13.30
2023-04-14T09:37:46.880Z,5.40
2023-04-14T09:40:29.458Z,6.30
2023-04-14T09:42:56.640Z,6.13
2023-04-14T09:45:23.423Z,5.45
2023-04-14T09:48:06.312Z,9.55
2023-04-14T09:50:33.516Z,10.80
2023-04-14T09:53:04.203Z,6.97
2023-04-14T09:55:31.132Z,11.00
2023-04-14T09:57:57.891Z,8.05
2023-04-14T10:00:24.690Z,8.40
2023-04-14T10:02:56.097Z,6.10
2023-04-14T10:05:33.017Z,5.47
2023-04-14T10:08:05.405Z,11.15
2023-04-14T10:10:32.504Z,10.00
2023-04-14T10:12:59.932Z,9.45
2023-04-14T10:15:27.303Z,8.17
2023-04-14T10:17:53.928Z,9.52
2023-04-14T10:20:20.548Z,9.70
2023-04-14T10:22:48.051Z,6.00
2023-04-14T10:25:15.295Z,7.47
2023-04-14T10:27:43.056Z,10.70
2023-04-14T10:30:10.044Z,6.82
2023-04-14T10:32:40.417Z,5.65
2023-04-14T10:35:10.137Z,4.55
2023-04-14T10:37:37.128Z,6.97
2023-04-14T10:40:05.482Z,6.70
2023-04-14T10:42:57.247Z,6.45
2023-04-14T10:45:23.966Z,4.72
2023-04-14T10:47:51.286Z,6.38
2023-04-14T10:50:22.108Z,6.93
2023-04-14T10:52:55.640Z,5.37
2023-04-14T10:55:23.814Z,6.65
2023-04-14T10:57:50.682Z,5.45
2023-04-14T11:00:20.086Z,4.35
2023-04-14T11:02:58.867Z,5.30
2023-04-14T11:05:25.799Z,7.00
2023-04-14T11:07:59.303Z,5.78
2023-04-14T11:10:30.943Z,4.45
2023-04-14T11:13:02.344Z,7.50
2023-04-14T11:15:45.004Z,6.80
2023-04-14T11:18:16.746Z,4.47
2023-04-14T11:20:44.198Z,5.03
2023-04-14T11:23:13.275Z,6.10
2023-04-14T11:25:40.426Z,7.03
2023-04-14T11:28:07.387Z,5.60
2023-04-14T11:30:33.901Z,6.13
2023-04-14T11:33:00.760Z,6.63
2023-04-14T11:35:28.433Z,7.72
2023-04-14T11:37:55.951Z,5.45
2023-04-14T11:40:23.584Z,10.63
2023-04-14T11:42:55.086Z,5.10
2023-04-14T11:45:21.787Z,5.43
2023-04-14T11:48:05.607Z,5.47
2023-04-14T11:50:34.698Z,7.05
2023-04-14T11:53:02.893Z,6.10
2023-04-14T11:55:30.095Z,7.07
2023-04-14T11:57:57.221Z,6.05
2023-04-14T12:00:24.501Z,5.20
2023-04-14T12:02:51.632Z,8.98
2023-04-14T12:05:21.862Z,4.88
2023-04-14T12:07:49.398Z,5.00
2023-04-14T12:10:16.134Z,4.60
2023-04-14T12:12:42.660Z,7.07
2023-04-14T12:15:09.956Z,4.00
2023-04-14T12:17:37.243Z,6.75
2023-04-14T12:20:05.450Z,5.77
2023-04-14T12:22:31.998Z,5.43
2023-04-14T12:24:58.551Z,9.02
2023-04-14T12:27:26.524Z,6.03
2023-04-14T12:29:53.035Z,5.10
2023-04-14T12:32:22.080Z,3.27
2023-04-14T12:34:57.829Z,5.80
2023-04-14T12:37:28.483Z,7.47
2023-04-14T12:40:00.732Z,7.32
2023-04-14T12:42:51.502Z,7.50
2023-04-14T12:45:18.194Z,5.73
2023-04-14T12:47:52.994Z,10.38
2023-04-14T12:50:28.340Z,5.97
2023-04-14T12:52:56.734Z,7.05
2023-04-14T12:55:28.369Z,5.75
2023-04-14T12:57:55.818Z,10.97
2023-04-14T13:00:24.714Z,15.60
2023-04-14T13:02:51.352Z,26.42
2023-04-14T13:05:18.567Z,11.30
2023-04-14T13:07:46.424Z,6.05
2023-04-14T13:10:13.158Z,10.40
2023-04-14T13:12:39.936Z,6.03
2023-04-14T13:15:06.874Z,6.15
2023-04-14T13:17:33.687Z,8.20
2023-04-14T13:20:00.268Z,9.00
2023-04-14T13:22:27.291Z,6.80
2023-04-14T13:24:53.927Z,7.70
2023-04-14T13:27:20.681Z,4.75
2023-04-14T13:29:47.438Z,6.40
2023-04-14T13:32:14.032Z,6.05
2023-04-14T13:34:42.017Z,4.87
2023-04-14T13:37:08.549Z,4.38
2023-04-14T13:39:35.136Z,4.47
2023-04-14T13:42:01.668Z,5.88
2023-04-14T13:44:28.820Z,4.43
2023-04-14T13:46:55.333Z,3.80
2023-04-14T13:49:21.878Z,5.93
2023-04-14T13:51:48.498Z,9.65
2023-04-14T13:54:15.027Z,5.80
2023-04-14T13:56:41.673Z,7.72
2023-04-14T13:59:08.203Z,5.93
2023-04-14T14:01:34.757Z,4.82
2023-04-14T14:04:01.632Z,7.40
2023-04-14T14:06:28.891Z,4.38
2023-04-14T14:09:06.510Z,6.68
2023-04-14T14:11:33.497Z,5.47
2023-04-14T14:14:00.271Z,4.65
2023-04-14T14:18:57.186Z,5.07
2023-04-14T14:21:23.754Z,5.80
2023-04-14T14:23:50.245Z,8.17
2023-04-14T14:26:16.782Z,7.75
2023-04-14T14:28:45.246Z,5.35
2023-04-14T14:31:11.774Z,5.13
2023-04-14T14:33:38.393Z,8.15
2023-04-14T14:36:05.745Z,7.43
2023-04-14T14:38:32.426Z,5.40
2023-04-14T14:40:58.927Z,6.95
2023-04-14T14:43:25.407Z,6.15
2023-04-14T14:45:51.926Z,6.68
2023-04-14T14:48:18.491Z,5.57
2023-04-14T14:50:45.149Z,7.68
2023-04-14T14:53:11.679Z,5.75
2023-04-14T14:55:38.153Z,6.95
2023-04-14T14:58:06.350Z,9.63
2023-04-14T15:00:33.070Z,4.87
2023-04-14T15:02:59.750Z,4.55
2023-04-14T15:05:26.963Z,5.55
2023-04-14T15:07:53.517Z,7.35
2023-04-14T15:10:20.171Z,11.73
2023-04-14T15:12:46.608Z,7.90
2023-04-14T15:15:13.228Z,9.43
2023-04-14T15:17:39.986Z,4.53
2023-04-14T15:20:07.099Z,8.55
2023-04-14T15:22:33.735Z,5.50
2023-04-14T15:25:00.248Z,5.87
2023-04-14T15:27:27.047Z,10.88
2023-04-14T15:29:54.676Z,7.40
2023-04-14T15:32:25.238Z,4.63
2023-04-14T15:34:53.324Z,5.50
2023-04-14T15:37:20.109Z,4.30
2023-04-14T15:39:46.662Z,6.30
2023-04-14T15:42:13.281Z,4.20
2023-04-14T15:44:39.831Z,7.07
2023-04-14T15:47:06.308Z,8.95
2023-04-14T15:49:32.793Z,17.87
2023-04-14T15:51:59.310Z,6.05
2023-04-14T15:54:26.921Z,5.45
2023-04-14T15:56:53.447Z,10.63
2023-04-14T15:59:21.249Z,7.25
2023-04-14T16:01:47.854Z,4.83
2023-04-14T16:04:14.595Z,6.07
2023-04-14T16:06:41.143Z,5.10
2023-04-14T16:09:07.680Z,7.68
2023-04-14T16:11:34.553Z,7.03
2023-04-14T16:14:01.317Z,7.40
2023-04-14T16:16:28.516Z,6.75
2023-04-14T16:18:55.116Z,7.03
2023-04-14T16:21:21.622Z,6.97
2023-04-14T16:23:48.244Z,6.40
2023-04-14T16:26:15.939Z,6.03
2023-04-14T16:28:42.909Z,7.15
2023-04-14T16:31:09.704Z,8.90
2023-04-14T16:33:36.347Z,6.97
2023-04-14T16:36:07.271Z,8.93
2023-04-14T16:38:34.010Z,5.23
2023-04-14T16:41:02.150Z,6.22
2023-04-14T16:43:28.805Z,9.18
2023-04-14T16:46:05.634Z,6.13
2023-04-14T16:48:32.772Z,6.32
2023-04-14T16:51:06.472Z,5.23
2023-04-14T16:53:33.034Z,14.07
2023-04-14T16:56:04.461Z,7.10
2023-04-14T16:58:31.153Z,8.45
2023-04-14T17:00:57.637Z,6.75
2023-04-14T17:03:24.334Z,7.70
2023-04-14T17:05:50.965Z,7.95
2023-04-14T17:08:17.552Z,6.35
2023-04-14T17:10:44.153Z,8.32
2023-04-14T17:13:10.749Z,6.13
2023-04-14T17:15:37.436Z,7.03
2023-04-14T17:18:04.417Z,6.47
2023-04-14T17:20:31.767Z,5.75
2023-04-14T17:23:00.158Z,7.65
2023-04-14T17:25:26.990Z,4.90
2023-04-14T17:27:56.358Z,7.53
2023-04-14T17:30:22.991Z,7.28
2023-04-14T17:32:49.561Z,5.53
2023-04-14T17:35:16.277Z,11.45
2023-04-14T17:37:42.823Z,6.93
2023-04-14T17:40:10.665Z,5.73
2023-04-14T17:42:37.767Z,5.97
2023-04-14T17:45:05.019Z,6.90
2023-04-14T17:47:32.514Z,5.85
2023-04-14T17:49:59.037Z,4.90
2023-04-14T17:52:25.867Z,5.93
2023-04-14T17:54:52.678Z,4.40
2023-04-14T17:57:19.611Z,6.45
2023-04-14T17:59:46.223Z,4.00
2023-04-14T18:02:14.265Z,5.22
2023-04-14T18:04:40.945Z,6.80
2023-04-14T18:07:07.622Z,5.93
2023-04-14T18:09:34.141Z,4.07
2023-04-14T18:12:00.665Z,8.88
2023-04-14T18:14:27.442Z,6.50
2023-04-14T18:16:54.621Z,6.63
2023-04-14T18:19:21.960Z,6.13
2023-04-14T18:21:48.500Z,6.68
2023-04-14T18:26:44.368Z,6.65
2023-04-14T18:29:11.930Z,6.60
2023-04-14T18:31:38.655Z,7.38
2023-04-14T18:34:05.795Z,8.15
2023-04-14T18:36:32.947Z,6.20
2023-04-14T18:39:00.159Z,6.22
2023-04-14T18:41:26.920Z,7.43
2023-04-14T18:43:53.658Z,9.57
2023-04-14T18:46:21.239Z,9.50
2023-04-14T18:48:48.378Z,8.93
2023-04-14T18:51:16.117Z,7.53
2023-04-14T18:53:44.690Z,12.23
2023-04-14T18:56:11.262Z,9.13
2023-04-14T18:58:38.202Z,7.85
2023-04-14T19:01:04.769Z,8.02
2023-04-14T19:03:31.876Z,10.70
2023-04-14T19:05:58.954Z,9.57
2023-04-14T19:08:25.652Z,11.52
2023-04-14T19:10:52.428Z,7.95
2023-04-14T19:13:19.643Z,9.25
2023-04-14T19:15:46.216Z,11.05
2023-04-14T19:18:12.745Z,10.87
2023-04-14T19:20:39.302Z,8.13
2023-04-14T19:23:06.003Z,9.05
2023-04-14T19:25:32.511Z,10.35
2023-04-14T19:28:01.269Z,9.60
2023-04-14T19:30:29.037Z,10.17
2023-04-14T19:32:55.567Z,10.00
2023-04-14T19:35:22.494Z,12.27
2023-04-14T19:37:49.022Z,7.80
2023-04-14T19:40:15.628Z,9.02
2023-04-14T19:42:42.153Z,9.57
2023-04-14T19:45:10.167Z,10.02
2023-04-14T19:47:37.486Z,7.53
2023-04-14T19:50:04.665Z,8.73
2023-04-14T19:52:31.163Z,7.72
2023-04-14T19:54:58.197Z,10.43
2023-04-14T19:57:24.811Z,13.50
2023-04-14T19:59:51.325Z,11.55
2023-04-14T20:02:18.884Z,15.48
2023-04-14T20:04:46.833Z,12.52
2023-04-14T20:07:13.500Z,13.93
2023-04-14T20:09:46.557Z,10.60
2023-04-14T20:12:13.923Z,11.52
2023-04-14T20:14:40.453Z,11.20
2023-04-14T20:17:07.300Z,12.05
2023-04-14T20:19:33.746Z,10.80
2023-04-14T20:22:00.916Z,10.80
2023-04-14T20:24:27.714Z,11.23
2023-04-14T20:26:55.387Z,11.05
2023-04-14T20:29:23.399Z,16.00
2023-04-14T20:31:50.564Z,16.20
2023-04-14T20:34:18.052Z,9.98
2023-04-14T20:36:44.967Z,8.98
2023-04-14T20:39:11.665Z,11.20
2023-04-14T20:41:38.295Z,11.13
2023-04-14T20:44:04.935Z,11.10
2023-04-14T20:46:31.896Z,11.38
2023-04-14T20:48:58.469Z,8.68
2023-04-14T20:51:25.204Z,11.65
2023-04-14T20:53:51.701Z,12.45
2023-04-14T20:56:18.159Z,10.63
2023-04-14T20:58:45.445Z,12.00
2023-04-14T21:01:12.141Z,8.98
2023-04-14T21:03:39.092Z,12.70
2023-04-14T21:06:06.132Z,15.63
2023-04-14T21:08:32.703Z,14.57
2023-04-14T21:11:14.663Z,10.40
2023-04-14T21:15:27.145Z,15.85
2023-04-14T21:16:30.665Z,17.35
2023-04-14T21:18:57.449Z,14.25
2023-04-14T21:21:23.987Z,13.83
2023-04-14T21:23:50.689Z,14.32
2023-04-14T21:26:17.741Z,13.07
2023-04-14T21:28:44.482Z,12.68
2023-04-14T21:31:11.302Z,10.45
2023-04-14T21:33:39.644Z,13.93
2023-04-14T21:36:06.996Z,10.65
2023-04-14T21:38:33.537Z,9.85
2023-04-14T21:41:00.106Z,11.60
2023-04-14T21:43:26.625Z,8.77
2023-04-14T21:45:53.918Z,9.53
2023-04-14T21:48:20.744Z,9.52
2023-04-14T21:50:47.323Z,8.98
2023-04-14T21:53:14.005Z,10.82
2023-04-14T21:55:41.002Z,8.85
2023-04-14T21:58:07.509Z,9.07
2023-04-14T22:00:34.014Z,11.68
2023-04-14T22:03:00.704Z,12.93
2023-04-14T22:05:27.307Z,9.35
2023-04-14T22:07:54.950Z,13.52
2023-04-14T22:10:31.600Z,10.53
2023-04-14T22:12:59.576Z,9.45
2023-04-14T22:15:27.412Z,8.93
2023-04-14T22:17:54.001Z,10.55
2023-04-14T22:20:20.552Z,11.15
2023-04-14T22:22:46.992Z,10.37
2023-04-14T22:25:13.510Z,10.57
2023-04-14T22:27:40.050Z,10.45
2023-04-14T22:30:07.152Z,8.05
2023-04-14T22:32:33.713Z,8.23
2023-04-14T22:35:00.184Z,11.03
2023-04-14T22:37:26.659Z,9.60
2023-04-14T22:39:53.149Z,6.40
2023-04-14T22:42:21.092Z,11.50
2023-04-14T22:44:49.318Z,9.68
2023-04-14T22:47:15.812Z,9.90
2023-04-14T22:49:42.378Z,7.65
2023-04-14T22:52:08.880Z,6.75
2023-04-14T22:54:35.479Z,9.43
2023-04-14T22:57:02.025Z,8.07
2023-04-14T22:59:28.451Z,6.50
2023-04-14T23:01:55.066Z,11.23
2023-04-14T23:04:21.694Z,8.45
2023-04-14T23:06:48.322Z,6.32
2023-04-14T23:09:15.311Z,8.15
2023-04-14T23:11:41.927Z,7.80
2023-04-14T23:14:08.418Z,9.40
2023-04-14T23:16:34.973Z,7.03
2023-04-14T23:19:01.674Z,6.82
2023-04-14T23:21:28.423Z,11.50
2023-04-14T23:23:54.962Z,7.13
2023-04-14T23:26:21.703Z,7.65
2023-04-14T23:28:48.335Z,6.38
2023-04-14T23:31:14.910Z,5.80
2023-04-14T23:33:41.490Z,6.68
2023-04-14T23:36:08.179Z,7.97
2023-04-14T23:38:34.764Z,7.60
2023-04-14T23:41:01.305Z,6.55
2023-04-14T23:43:29.056Z,8.13
2023-04-14T23:45:55.815Z,9.02
2023-04-14T23:48:22.343Z,9.37
2023-04-14T23:51:00.510Z,8.45
2023-04-14T23:53:35.368Z,6.55
2023-04-14T23:56:03.941Z,7.25
2023-04-14T23:58:30.804Z,7.43
